Nevada, Missouri
Current Conditions -  °F | °C
As of 5:35 PM on Wednesday 22 Oct 2014 (Local Time) from KPTS Reporting Station
Scattered Clouds Scattered Clouds  
Wind Chill: 74°   Ceiling: Unl
Heat Index: 74°   Visibility: 10mi
Dew Point: 62°   Wind: 5mph
Humidity: 65%   Direction: 140°SE
Pressure: 30.1"   Gusts: NA
Location:  37.84°N, 94.36°W
Report Text: KPTS 222235Z AUTO 14004KT 10SM SCT065 23/16 A3010 RMK AO2 T02340164
Loading
Personal Weather Stations






























Interactive Weather Map
Tropical Storm Tracking
New forecast layout! Learn more

10-Day Weather Forecast

Advertisements
Track Severe Weather on mobile